Time;durP1;ratioP1;P1;durP2;ratioP2;P2;SDS_P1;SDS_P2;PMS_P1;PMS_P2;Temp;Humidity;BMP_temperature;BMP_pressure;BME280_temperature;BME280_humidity;BME280_pressure;Samples;Min_cycle;Max_cycle;Signal;HPM_P1;HPM_P2
2022/08/14 00:00:10;;;;;;;5.65;3.38;;;25.20;54.10;;;;;;5094304;28;20020;-73
2022/08/14 00:02:35;;;;;;;5.55;3.38;;;25.20;54.40;;;;;;5093847;28;20020;-73
2022/08/14 00:05:01;;;;;;;4.93;2.92;;;25.10;54.40;;;;;;5094054;28;20039;-73
2022/08/14 00:07:27;;;;;;;4.95;3.35;;;25.10;54.50;;;;;;5092779;28;20039;-73
2022/08/14 00:09:53;;;;;;;5.15;3.42;;;25.00;54.60;;;;;;5092667;28;20020;-73
2022/08/14 00:12:19;;;;;;;6.35;4.40;;;25.00;54.90;;;;;;5092514;28;20032;-73
2022/08/14 00:14:45;;;;;;;4.93;3.72;;;25.00;55.00;;;;;;5092514;28;20062;-74
2022/08/14 00:17:10;;;;;;;5.57;3.78;;;25.00;55.20;;;;;;5093659;28;20062;-73
2022/08/14 00:19:36;;;;;;;6.43;3.70;;;24.90;55.30;;;;;;5092533;28;20107;-74
2022/08/14 00:22:02;;;;;;;5.40;3.75;;;24.90;55.50;;;;;;5092471;28;20040;-73
2022/08/14 00:24:28;;;;;;;6.13;3.58;;;24.80;55.60;;;;;;5093592;28;20027;-73
2022/08/14 00:26:53;;;;;;;6.43;3.45;;;24.80;55.70;;;;;;5093706;28;20032;-74
2022/08/14 00:29:19;;;;;;;5.90;3.88;;;24.80;55.90;;;;;;5093401;28;20051;-74
2022/08/14 00:31:44;;;;;;;7.15;3.72;;;24.80;56.00;;;;;;5092227;28;20119;-73
2022/08/14 00:34:10;;;;;;;5.70;4.32;;;24.70;56.10;;;;;;5075528;28;20046;-74
2022/08/14 00:36:36;;;;;;;6.95;3.67;;;24.70;56.20;;;;;;5092108;28;20455;-73
2022/08/14 00:39:03;;;;;;;6.05;3.85;;;24.60;56.30;;;;;;5092192;28;20032;-73
2022/08/14 00:41:31;;;;;;;7.43;4.03;;;24.60;56.40;;;;;;5092259;28;20024;-73
2022/08/14 00:43:58;;;;;;;6.55;4.05;;;24.50;56.50;;;;;;5093319;28;20052;-73
2022/08/14 00:46:23;;;;;;;7.35;3.92;;;24.50;56.70;;;;;;5092169;28;20047;-73
2022/08/14 00:48:49;;;;;;;6.20;3.53;;;24.50;56.90;;;;;;5092148;28;20083;-73
2022/08/14 00:51:15;;;;;;;5.95;3.70;;;24.40;57.00;;;;;;5093338;28;20107;-73
2022/08/14 00:53:41;;;;;;;7.88;3.88;;;24.40;57.10;;;;;;5075714;28;20036;-74
2022/08/14 00:56:08;;;;;;;5.18;3.60;;;24.30;57.30;;;;;;5075381;28;20377;-73
2022/08/14 00:58:35;;;;;;;8.45;3.90;;;24.30;57.40;;;;;;5075192;28;20032;-73
2022/08/14 01:01:05;;;;;;;6.22;4.07;;;24.30;57.50;;;;;;5091805;28;20112;-73
2022/08/14 01:03:34;;;;;;;6.10;4.25;;;24.20;57.70;;;;;;5093139;28;20034;-73
2022/08/14 01:06:00;;;;;;;6.88;4.18;;;24.10;57.80;;;;;;5093166;28;20418;-72
2022/08/14 01:08:29;;;;;;;5.85;4.03;;;24.10;58.10;;;;;;5091920;28;20036;-74
2022/08/14 01:10:55;;;;;;;6.15;4.30;;;24.10;58.40;;;;;;5093080;28;20036;-73
2022/08/14 01:13:27;;;;;;;4.95;3.42;;;24.00;58.50;;;;;;5091760;28;20036;-73
2022/08/14 01:15:56;;;;;;;7.32;4.30;;;24.00;58.70;;;;;;5091511;28;20031;-74
2022/08/14 01:21:16;;;;;;;6.18;4.13;;;23.90;58.90;;;;;;5092204;28;20035;-73
2022/08/14 01:23:49;;;;;;;7.47;4.25;;;23.80;59.10;;;;;;5091322;28;20029;-73
2022/08/14 01:26:22;;;;;;;8.57;5.15;;;23.80;59.30;;;;;;5091613;28;20062;-73
2022/08/14 01:28:54;;;;;;;9.43;4.50;;;23.70;59.30;;;;;;5092957;28;20032;-73
2022/08/14 01:31:20;;;;;;;6.53;4.07;;;23.70;59.50;;;;;;5091655;28;20036;-73
2022/08/14 01:33:49;;;;;;;8.18;4.70;;;23.60;59.60;;;;;;5091872;28;20469;-73
2022/08/14 01:36:16;;;;;;;5.32;3.58;;;23.60;59.80;;;;;;5091607;28;20111;-73
2022/08/14 01:38:44;;;;;;;6.05;4.75;;;23.60;60.00;;;;;;5074921;28;20056;-73
2022/08/14 01:41:12;;;;;;;5.38;4.15;;;23.50;60.20;;;;;;5092456;28;20027;-73
2022/08/14 01:43:51;;;;;;;6.35;4.72;;;23.50;60.30;;;;;;5096710;28;20058;-79
2022/08/14 01:46:20;;;;;;;6.85;4.38;;;23.40;60.60;;;;;;5096649;28;20016;-79
2022/08/14 01:48:47;;;;;;;6.43;4.25;;;23.40;60.60;;;;;;5095056;28;20020;-79
2022/08/14 01:51:15;;;;;;;7.28;4.65;;;23.40;60.80;;;;;;5095232;28;20027;-80
2022/08/14 01:53:43;;;;;;;6.78;4.53;;;23.30;60.90;;;;;;5096277;28;20061;-79
2022/08/14 01:56:10;;;;;;;8.05;5.20;;;23.30;61.20;;;;;;5096359;28;20028;-79
2022/08/14 01:58:35;;;;;;;5.78;4.30;;;23.30;61.40;;;;;;5078201;28;20048;-79
2022/08/14 02:01:03;;;;;;;6.63;4.35;;;23.30;61.60;;;;;;5095068;28;20438;-79
2022/08/14 02:03:34;;;;;;;7.18;4.82;;;23.20;61.70;;;;;;5062185;28;20024;-79
2022/08/14 02:06:01;;;;;;;8.82;5.22;;;23.20;61.80;;;;;;5096250;28;20020;-79
2022/08/14 02:08:30;;;;;;;5.75;4.18;;;23.10;61.90;;;;;;5094995;28;20028;-79
2022/08/14 02:11:16;;;;;;;8.05;4.93;;;23.00;62.00;;;;;;5094732;28;20119;-79
2022/08/14 02:13:43;;;;;;;7.00;4.93;;;23.00;62.20;;;;;;5094606;28;20032;-79
2022/08/14 02:16:15;;;;;;;6.65;4.13;;;23.00;62.40;;;;;;5095751;28;20028;-79
2022/08/14 02:18:42;;;;;;;5.22;4.00;;;22.90;62.60;;;;;;5096024;28;20376;-79
2022/08/14 02:21:08;;;;;;;7.05;4.90;;;22.90;62.80;;;;;;5096213;28;20031;-79
2022/08/14 02:23:35;;;;;;;6.40;4.55;;;22.90;62.90;;;;;;5095843;28;20468;-79
2022/08/14 02:26:13;;;;;;;6.45;5.13;;;22.80;62.90;;;;;;5094567;28;20070;-79
2022/08/14 02:28:38;;;;;;;7.80;5.03;;;22.80;63.10;;;;;;5094521;28;20039;-79
2022/08/14 02:31:07;;;;;;;6.70;5.00;;;22.80;63.20;;;;;;5095809;28;20032;-78
2022/08/14 02:33:34;;;;;;;6.25;4.93;;;22.70;63.30;;;;;;5061796;28;20361;-80
2022/08/14 02:36:02;;;;;;;6.78;4.70;;;22.70;63.40;;;;;;5094321;28;20027;-79
2022/08/14 02:38:29;;;;;;;9.10;4.70;;;22.70;63.60;;;;;;5094415;28;20024;-79
2022/08/14 02:40:57;;;;;;;8.18;4.88;;;22.70;63.80;;;;;;5095553;28;20032;-80
2022/08/14 02:43:22;;;;;;;7.50;5.22;;;22.70;64.50;;;;;;5095553;28;20467;-80
2022/08/14 02:45:48;;;;;;;7.40;5.15;;;22.60;64.00;;;;;;5094291;28;20031;-79
2022/08/14 02:48:14;;;;;;;10.50;5.50;;;22.60;64.00;;;;;;5094077;28;20436;-79
2022/08/14 02:50:42;;;;;;;8.02;5.38;;;22.60;64.10;;;;;;5095498;28;20596;-79
2022/08/14 02:53:10;;;;;;;8.48;5.07;;;22.50;64.30;;;;;;5094102;28;20032;-80
2022/08/14 02:55:36;;;;;;;9.63;5.20;;;22.50;64.60;;;;;;5094875;28;20463;-79
2022/08/14 02:58:04;;;;;;;8.23;5.03;;;22.50;64.70;;;;;;5093997;28;20085;-79
2022/08/14 03:00:31;;;;;;;7.55;4.78;;;22.40;64.80;;;;;;5093843;28;20020;-79
2022/08/14 03:02:57;;;;;;;9.63;5.60;;;22.40;64.90;;;;;;5060673;28;20043;-79
2022/08/14 03:05:23;;;;;;;6.68;4.80;;;22.40;65.10;;;;;;5095051;28;20032;-79
2022/08/14 03:07:48;;;;;;;8.55;5.60;;;22.40;65.20;;;;;;5094987;28;20099;-79
2022/08/14 03:10:14;;;;;;;7.35;4.90;;;22.30;65.90;;;;;;5094934;28;20090;-79
2022/08/14 03:12:39;;;;;;;9.13;5.53;;;22.30;65.50;;;;;;5093669;28;20032;-79
2022/08/14 03:15:07;;;;;;;7.20;5.60;;;22.20;65.60;;;;;;5094732;28;20376;-79
2022/08/14 03:17:34;;;;;;;6.85;5.28;;;22.20;65.60;;;;;;5093513;28;20028;-79
2022/08/14 03:19:59;;;;;;;7.03;5.18;;;22.20;65.80;;;;;;5093723;28;20027;-79
2022/08/14 03:22:26;;;;;;;9.68;5.70;;;22.20;65.80;;;;;;5093661;28;20380;-79
2022/08/14 03:24:52;;;;;;;7.10;5.38;;;22.20;66.00;;;;;;5094685;28;20028;-79
2022/08/14 03:27:17;;;;;;;6.78;5.00;;;22.10;66.10;;;;;;5093532;28;20101;-79
2022/08/14 03:29:44;;;;;;;7.68;5.88;;;22.10;66.20;;;;;;5094822;28;20028;-79
2022/08/14 03:32:09;;;;;;;8.75;5.55;;;22.10;66.90;;;;;;5076661;28;20134;-79
2022/08/14 03:34:36;;;;;;;8.85;5.95;;;22.10;66.40;;;;;;5094422;28;20447;-79
2022/08/14 03:37:02;;;;;;;8.18;5.95;;;22.10;66.40;;;;;;5093292;28;20020;-80
2022/08/14 03:39:28;;;;;;;6.85;5.38;;;22.00;66.60;;;;;;5093108;28;20020;-79
2022/08/14 03:41:55;;;;;;;9.73;5.95;;;22.00;66.90;;;;;;5093051;28;20077;-80
2022/08/14 03:44:22;;;;;;;8.63;5.97;;;21.90;66.90;;;;;;5094410;28;20039;-80
2022/08/14 03:46:47;;;;;;;8.05;5.72;;;21.90;67.10;;;;;;5092974;28;20047;-80
2022/08/14 03:49:15;;;;;;;8.23;6.45;;;21.90;67.20;;;;;;5093108;28;20528;-80
2022/08/14 03:51:40;;;;;;;9.77;6.15;;;21.80;67.40;;;;;;5094189;28;20036;-79
2022/08/14 03:54:11;;;;;;;8.63;5.88;;;21.80;68.20;;;;;;5093972;28;20159;-79
2022/08/14 03:56:39;;;;;;;11.65;6.10;;;21.80;67.70;;;;;;5076644;28;20027;-80
2022/08/14 03:59:10;;;;;;;7.63;5.88;;;21.80;67.80;;;;;;5076275;28;20044;-80
2022/08/14 04:01:38;;;;;;;9.55;6.20;;;21.80;67.90;;;;;;5092778;28;20024;-80
2022/08/14 04:04:05;;;;;;;8.18;5.18;;;21.80;68.00;;;;;;5093579;28;20103;-80
2022/08/14 04:06:32;;;;;;;8.25;5.80;;;21.70;68.00;;;;;;5076037;28;20031;-80
2022/08/14 04:08:58;;;;;;;8.82;5.85;;;21.70;68.20;;;;;;5092665;28;20072;-80
2022/08/14 04:11:24;;;;;;;10.20;6.20;;;21.60;68.20;;;;;;5092837;28;20111;-80
2022/08/14 04:13:50;;;;;;;11.32;6.30;;;21.60;68.50;;;;;;5093916;28;20129;-80
2022/08/14 04:16:22;;;;;;;7.75;5.80;;;21.60;68.60;;;;;;5075646;28;20035;-80
2022/08/14 04:18:53;;;;;;;8.95;6.50;;;21.60;68.70;;;;;;5093795;28;20012;-80
2022/08/14 04:21:23;;;;;;;7.68;5.47;;;21.50;68.80;;;;;;5093645;28;20440;-80
2022/08/14 04:23:51;;;;;;;7.65;5.32;;;21.50;68.80;;;;;;5092253;28;20023;-80
2022/08/14 04:26:18;;;;;;;8.10;5.82;;;21.50;68.90;;;;;;5093577;28;20024;-79
2022/08/14 04:28:44;;;;;;;8.45;6.25;;;21.50;69.00;;;;;;5092357;28;20031;-80
2022/08/14 04:31:10;;;;;;;8.80;5.55;;;21.50;69.20;;;;;;5093537;28;20020;-80
2022/08/14 04:33:36;;;;;;;8.40;6.60;;;21.40;69.20;;;;;;5093445;28;20085;-79
2022/08/14 04:36:03;;;;;;;10.23;7.03;;;21.40;69.40;;;;;;5092248;28;20089;-79
2022/08/14 04:43:57;;;;;;;7.93;5.97;;;21.40;69.70;;;;;;5093652;28;20101;-79
2022/08/14 04:46:23;;;;;;;8.80;6.28;;;21.40;69.70;;;;;;5092056;28;20459;-79
2022/08/14 04:48:50;;;;;;;8.95;6.20;;;21.40;69.90;;;;;;5092012;28;20127;-79
2022/08/14 04:51:19;;;;;;;7.00;5.38;;;21.40;70.00;;;;;;5093317;28;20028;-79
2022/08/14 04:53:47;;;;;;;9.13;6.70;;;21.30;69.90;;;;;;5091750;28;20028;-79
2022/08/14 04:56:15;;;;;;;8.45;6.47;;;21.40;70.10;;;;;;5093246;28;20547;-80
2022/08/14 04:58:42;;;;;;;9.18;6.53;;;21.30;70.10;;;;;;5092003;28;20024;-79
2022/08/14 05:01:09;;;;;;;8.13;6.53;;;21.30;70.10;;;;;;5093217;28;20384;-80
2022/08/14 05:03:36;;;;;;;8.35;5.78;;;21.40;70.20;;;;;;5093227;28;20071;-80
2022/08/14 05:06:05;;;;;;;10.32;6.75;;;21.40;70.20;;;;;;5093182;28;20016;-80
2022/08/14 05:08:31;;;;;;;9.73;7.10;;;21.40;70.20;;;;;;5091788;28;20494;-79
2022/08/14 05:10:59;;;;;;;10.15;7.47;;;21.40;70.30;;;;;;5093185;28;20035;-80
2022/08/14 05:13:27;;;;;;;9.23;6.85;;;21.40;70.30;;;;;;5091778;28;20472;-80
2022/08/14 05:15:55;;;;;;;9.77;7.60;;;21.40;70.50;;;;;;5093330;28;20032;-80
2022/08/14 05:18:22;;;;;;;9.18;7.03;;;21.40;70.50;;;;;;5095865;28;20096;-80
2022/08/14 05:20:51;;;;;;;7.82;5.82;;;21.40;70.60;;;;;;5094294;28;20057;-80
2022/08/14 05:23:19;;;;;;;10.45;7.25;;;21.50;70.70;;;;;;5088209;28;20081;-80
2022/08/14 05:25:47;;;;;;;9.52;6.80;;;21.50;70.90;;;;;;5094486;28;20028;-80
2022/08/14 05:28:19;;;;;;;9.00;6.68;;;21.50;70.90;;;;;;5094410;28;20392;-79
2022/08/14 05:30:50;;;;;;;8.33;6.23;;;21.50;70.90;;;;;;5095647;28;20031;-80
2022/08/14 05:33:18;;;;;;;7.53;6.20;;;21.50;70.90;;;;;;5091815;28;20288;-73
2022/08/14 05:35:45;;;;;;;11.63;7.57;;;21.50;70.90;;;;;;5096306;28;20116;-73
2022/08/14 05:38:12;;;;;;;8.73;7.00;;;21.50;70.90;;;;;;5093749;28;20016;-73
2022/08/14 05:40:39;;;;;;;10.32;7.28;;;21.60;71.00;;;;;;5095523;28;20499;-73
2022/08/14 05:43:05;;;;;;;9.55;7.18;;;21.60;71.00;;;;;;5095579;28;20039;-80
2022/08/14 05:45:32;;;;;;;8.32;6.82;;;21.60;71.00;;;;;;5095505;28;20035;-80
2022/08/14 05:47:58;;;;;;;8.70;6.88;;;21.60;71.00;;;;;;5096724;28;20084;-80
2022/08/14 05:50:24;;;;;;;8.65;6.65;;;21.70;71.10;;;;;;5096578;28;20040;-79
2022/08/14 05:52:49;;;;;;;10.23;7.28;;;21.70;71.00;;;;;;5095193;28;20498;-80
2022/08/14 05:55:16;;;;;;;8.93;7.38;;;21.70;71.00;;;;;;5095295;28;20048;-80
2022/08/14 05:57:57;;;;;;;10.75;7.85;;;21.70;71.00;;;;;;5096421;28;20031;-80
2022/08/14 06:00:29;;;;;;;10.18;6.97;;;21.70;71.00;;;;;;5096364;28;20028;-80
2022/08/14 06:02:55;;;;;;;10.95;7.63;;;21.80;70.90;;;;;;5096578;28;20027;-80
2022/08/14 06:05:22;;;;;;;8.75;6.63;;;21.80;70.80;;;;;;5095152;28;20040;-80
2022/08/14 06:07:48;;;;;;;9.48;7.43;;;21.80;70.90;;;;;;5096329;28;20086;-80
2022/08/14 06:10:13;;;;;;;10.45;7.35;;;21.90;71.40;;;;;;5095140;28;20055;-80
2022/08/14 06:12:39;;;;;;;10.07;6.65;;;21.90;70.70;;;;;;5061273;28;20391;-80
2022/08/14 06:15:07;;;;;;;8.82;7.18;;;21.90;70.60;;;;;;5094566;28;20040;-80
2022/08/14 06:17:46;;;;;;;8.75;7.13;;;22.00;70.60;;;;;;5094104;28;20020;-80
2022/08/14 06:20:12;;;;;;;8.07;6.88;;;22.00;70.50;;;;;;5094369;28;20061;-80
2022/08/14 06:22:40;;;;;;;10.38;7.25;;;22.00;70.40;;;;;;5095002;28;20024;-80
2022/08/14 06:25:07;;;;;;;10.25;6.93;;;22.10;70.50;;;;;;5094874;28;20036;-80
2022/08/14 06:27:38;;;;;;;8.48;7.22;;;22.10;70.50;;;;;;5094166;28;20055;-80
2022/08/14 06:30:09;;;;;;;8.75;7.05;;;22.10;70.50;;;;;;5094656;28;20036;-73
2022/08/14 06:32:36;;;;;;;9.77;7.32;;;22.10;70.50;;;;;;5094525;28;20506;-74
2022/08/14 06:35:05;;;;;;;8.18;6.82;;;22.20;70.40;;;;;;5094821;28;20043;-74
2022/08/14 06:37:50;;;;;;;13.77;7.53;;;22.20;70.50;;;;;;5094412;28;20533;-75
2022/08/14 06:40:32;;;;;;;9.80;7.75;;;22.30;70.70;;;;;;5095016;28;20111;-74
2022/08/14 06:43:00;;;;;;;8.55;6.65;;;22.30;70.50;;;;;;5092258;28;20043;-73
2022/08/14 06:45:26;;;;;;;9.45;6.70;;;22.30;70.30;;;;;;5095072;28;20069;-74
2022/08/14 06:47:53;;;;;;;12.50;6.82;;;22.40;70.30;;;;;;5093776;28;20020;-74
2022/08/14 06:50:21;;;;;;;8.35;6.47;;;22.50;70.30;;;;;;5094992;28;20111;-74
2022/08/14 06:52:48;;;;;;;10.82;7.72;;;22.50;70.20;;;;;;5075117;28;20119;-74
2022/08/14 06:55:18;;;;;;;9.80;7.00;;;22.50;70.20;;;;;;5073446;28;20049;-73
2022/08/14 06:57:49;;;;;;;8.70;6.75;;;22.60;70.10;;;;;;5074959;28;20017;-74
2022/08/14 07:00:23;;;;;;;9.95;7.00;;;22.60;70.00;;;;;;5073684;28;20028;-74
2022/08/14 07:06:07;;;;;;;9.00;7.20;;;22.70;69.80;;;;;;5075234;28;20089;-74
2022/08/14 07:08:29;;;;;;;8.55;6.40;;;22.70;70.40;;;;;;5071834;28;20037;-74
2022/08/14 07:10:58;;;;;;;9.77;6.95;;;22.80;69.70;;;;;;5074878;28;20028;-74
2022/08/14 07:13:25;;;;;;;9.82;7.10;;;22.80;69.50;;;;;;5074989;28;20036;-74
2022/08/14 07:15:53;;;;;;;8.63;7.05;;;22.90;69.50;;;;;;5073567;28;20036;-74
2022/08/14 07:18:24;;;;;;;8.00;6.20;;;22.90;69.40;;;;;;5056668;28;20024;-74
2022/08/14 07:20:52;;;;;;;8.43;6.82;;;23.00;69.50;;;;;;5074649;28;20507;-74
2022/08/14 07:23:18;;;;;;;8.68;7.00;;;23.00;69.30;;;;;;5073280;28;20012;-73
2022/08/14 07:25:44;;;;;;;8.73;7.13;;;23.00;69.20;;;;;;5074384;28;20025;-73
2022/08/14 07:28:12;;;;;;;9.07;7.60;;;23.10;69.20;;;;;;5074347;28;20025;-74
2022/08/14 07:30:38;;;;;;;9.50;7.78;;;23.20;69.20;;;;;;5074374;28;20028;-73
2022/08/14 07:33:05;;;;;;;11.88;7.05;;;23.20;69.10;;;;;;5073272;28;20024;-73
2022/08/14 07:35:32;;;;;;;8.50;7.25;;;23.20;69.00;;;;;;5073086;28;20392;-74
2022/08/14 07:37:57;;;;;;;12.65;6.93;;;23.20;68.90;;;;;;5074226;28;20028;-75
2022/08/14 07:40:23;;;;;;;9.95;6.90;;;23.30;68.80;;;;;;5073428;28;20108;-74
2022/08/14 07:42:49;;;;;;;10.63;7.82;;;23.40;68.80;;;;;;5074045;28;20081;-74
2022/08/14 07:45:15;;;;;;;12.98;8.10;;;23.40;68.70;;;;;;5072789;28;20556;-75
2022/08/14 07:47:42;;;;;;;11.85;7.70;;;23.50;68.60;;;;;;5072640;28;20111;-77
2022/08/14 07:50:16;;;;;;;12.35;8.18;;;23.50;68.40;;;;;;5074080;28;20108;-76
2022/08/14 07:52:44;;;;;;;10.60;7.53;;;23.60;68.40;;;;;;5072665;28;20111;-76
2022/08/14 07:55:11;;;;;;;13.18;8.00;;;23.60;68.40;;;;;;5072282;28;20087;-77
2022/08/14 07:57:42;;;;;;;10.23;8.05;;;23.70;68.40;;;;;;5072585;28;20074;-77
2022/08/14 08:00:15;;;;;;;10.68;8.10;;;23.70;68.30;;;;;;5072467;28;20028;-76
2022/08/14 08:02:44;;;;;;;11.27;7.85;;;23.70;68.30;;;;;;5073796;28;20023;-77
2022/08/14 08:05:11;;;;;;;12.10;7.32;;;23.90;68.40;;;;;;5086653;28;20020;-76
2022/08/14 08:07:37;;;;;;;11.70;7.68;;;23.90;68.30;;;;;;5092256;28;20415;-77
2022/08/14 08:10:29;;;;;;;12.68;7.40;;;23.90;68.10;;;;;;5092704;28;20028;-76
2022/08/14 08:13:14;;;;;;;10.88;7.57;;;24.00;68.00;;;;;;5093656;28;20040;-75
2022/08/14 08:15:49;;;;;;;8.65;6.97;;;24.10;68.10;;;;;;5092382;28;20077;-77
2022/08/14 08:18:16;;;;;;;9.52;7.43;;;24.20;68.00;;;;;;5092506;28;20020;-77
2022/08/14 08:20:47;;;;;;;9.13;7.10;;;24.30;67.90;;;;;;5093756;28;20464;-76
2022/08/14 08:23:14;;;;;;;7.90;6.32;;;24.30;67.60;;;;;;5075904;28;20052;-76
2022/08/14 08:25:42;;;;;;;9.00;6.80;;;24.40;67.40;;;;;;5093319;28;20464;-76
2022/08/14 08:28:12;;;;;;;9.57;7.07;;;24.50;67.30;;;;;;5092015;28;20542;-76
2022/08/14 08:30:50;;;;;;;7.53;6.03;;;24.50;67.00;;;;;;5093261;28;20024;-76
2022/08/14 08:33:18;;;;;;;9.48;6.43;;;24.60;66.80;;;;;;5091871;28;20611;-78
2022/08/14 08:35:44;;;;;;;9.77;6.50;;;24.70;66.50;;;;;;5089226;28;20149;-76
2022/08/14 08:38:18;;;;;;;10.02;6.78;;;24.80;66.40;;;;;;5093008;28;20111;-76
2022/08/14 08:40:47;;;;;;;7.50;6.13;;;24.80;66.10;;;;;;5089214;28;20024;-77
2022/08/14 08:43:16;;;;;;;11.77;6.32;;;24.90;66.00;;;;;;5091704;28;20012;-76
2022/08/14 08:45:42;;;;;;;9.48;6.43;;;25.00;65.80;;;;;;5091713;28;20031;-76
2022/08/14 08:48:08;;;;;;;9.95;6.90;;;25.10;65.70;;;;;;5091737;28;20028;-76
2022/08/14 08:50:36;;;;;;;9.18;6.70;;;25.20;65.60;;;;;;5074669;28;20032;-76
2022/08/14 08:53:04;;;;;;;8.77;5.95;;;25.30;65.40;;;;;;5091428;28;20028;-76
2022/08/14 08:55:33;;;;;;;8.00;6.00;;;25.40;65.20;;;;;;5089966;28;20132;-76
2022/08/14 08:58:14;;;;;;;7.57;5.78;;;25.40;65.00;;;;;;5093203;28;20019;-76
2022/08/14 09:00:42;;;;;;;8.00;5.65;;;25.60;64.70;;;;;;5091304;28;20461;-76
2022/08/14 09:03:10;;;;;;;9.13;5.45;;;25.70;64.40;;;;;;5093077;28;20023;-75
2022/08/14 09:05:38;;;;;;;7.20;5.75;;;25.80;64.20;;;;;;5077247;28;20045;-77
2022/08/14 09:08:15;;;;;;;6.85;5.60;;;25.80;64.00;;;;;;5092018;28;20047;-75
2022/08/14 09:10:41;;;;;;;6.13;4.95;;;25.90;63.70;;;;;;5091479;28;20063;-77
2022/08/14 09:13:09;;;;;;;8.35;5.57;;;26.10;63.50;;;;;;5075334;28;20028;-77
2022/08/14 09:15:36;;;;;;;8.65;5.22;;;26.10;63.20;;;;;;5091946;28;20051;-75
2022/08/14 09:18:02;;;;;;;6.57;5.38;;;26.30;63.00;;;;;;5073874;28;20020;-77
2022/08/14 09:20:28;;;;;;;9.00;5.13;;;26.40;62.90;;;;;;5081456;28;20454;-76
2022/08/14 09:22:54;;;;;;;7.93;4.75;;;26.50;62.70;;;;;;5091699;28;20028;-77
2022/08/14 09:25:20;;;;;;;7.55;5.07;;;26.60;62.50;;;;;;5091299;28;20016;-76
2022/08/14 09:27:46;;;;;;;8.02;5.18;;;26.70;62.30;;;;;;5093168;28;20035;-77
2022/08/14 09:30:11;;;;;;;9.35;5.25;;;26.80;62.10;;;;;;5074267;28;20082;-76
2022/08/14 09:33:02;;;;;;;7.53;4.80;;;26.90;61.80;;;;;;5091670;28;20028;-76
2022/08/14 09:35:52;;;;;;;6.68;4.85;;;27.00;61.40;;;;;;5082184;28;20503;-76
2022/08/14 09:38:55;;;;;;;6.82;4.88;;;27.10;61.00;;;;;;5091787;28;20480;-76
2022/08/14 09:41:42;;;;;;;7.35;5.20;;;27.20;60.70;;;;;;5092905;28;20047;-76
2022/08/14 09:44:18;;;;;;;7.45;4.97;;;27.30;60.50;;;;;;5093133;28;20471;-76
2022/08/14 09:46:58;;;;;;;6.57;4.53;;;27.50;60.10;;;;;;5091810;28;20008;-76
2022/08/14 09:49:35;;;;;;;6.38;4.68;;;27.60;59.90;;;;;;5091757;28;20024;-76
2022/08/14 09:52:09;;;;;;;6.53;4.32;;;27.70;60.30;;;;;;5093027;28;20091;-76
2022/08/14 09:54:36;;;;;;;;;;;27.70;59.30;;;;;;5091870;28;20052;-76
2022/08/14 09:57:05;;;;;;;7.28;4.35;;;27.90;59.10;;;;;;5092310;28;20245;-76
2022/08/14 09:59:44;;;;;;;7.90;4.80;;;28.00;58.90;;;;;;5091668;28;20024;-75
2022/08/14 10:02:30;;;;;;;7.03;4.68;;;28.00;58.50;;;;;;5093619;28;20501;-75
2022/08/14 10:05:00;;;;;;;6.00;4.18;;;28.20;58.40;;;;;;5096806;28;20084;-76
2022/08/14 10:07:33;;;;;;;7.95;5.03;;;28.20;58.00;;;;;;5095714;28;20441;-76
2022/08/14 10:10:00;;;;;;;5.97;4.18;;;28.30;57.50;;;;;;5078302;28;20031;-79
2022/08/14 10:12:42;;;;;;;6.28;3.67;;;28.40;57.40;;;;;;5095149;28;20024;-76
2022/08/14 10:15:16;;;;;;;6.78;4.30;;;28.50;57.00;;;;;;5096518;28;20111;-75
2022/08/14 10:17:42;;;;;;;6.90;4.22;;;28.60;56.70;;;;;;5095310;28;20047;-76
2022/08/14 10:20:10;;;;;;;5.95;4.32;;;28.80;57.00;;;;;;5061705;28;20060;-75
2022/08/14 10:22:35;;;;;;;6.05;4.43;;;29.00;56.10;;;;;;5095010;28;20008;-76
2022/08/14 10:25:13;;;;;;;6.80;4.13;;;29.10;55.80;;;;;;5061466;28;20036;-76
2022/08/14 10:27:39;;;;;;;5.85;4.25;;;29.40;55.60;;;;;;5094770;28;20170;-76
2022/08/14 10:30:13;;;;;;;5.47;4.07;;;29.70;55.40;;;;;;5095238;28;20036;-76
2022/08/14 10:32:47;;;;;;;6.18;4.25;;;30.00;54.70;;;;;;5094987;28;20023;-75
2022/08/14 10:35:13;;;;;;;5.95;4.20;;;30.40;54.20;;;;;;5094215;28;20027;-74
2022/08/14 10:37:48;;;;;;;6.00;3.67;;;30.80;53.70;;;;;;5077810;28;20430;-75
2022/08/14 10:40:25;;;;;;;4.47;3.45;;;31.20;53.00;;;;;;5094959;28;20472;-75
2022/08/14 10:42:51;;;;;;;7.63;3.50;;;31.80;52.60;;;;;;5095676;28;20024;-75
2022/08/14 10:45:21;;;;;;;4.38;3.20;;;32.30;52.30;;;;;;5094885;28;20046;-75
2022/08/14 10:47:48;;;;;;;4.47;2.72;;;32.90;51.10;;;;;;5095640;28;20073;-75
2022/08/14 10:50:15;;;;;;;4.85;2.88;;;33.50;50.30;;;;;;5096080;28;20087;-75
2022/08/14 10:52:42;;;;;;;5.10;3.25;;;34.20;49.50;;;;;;5094739;28;20483;-75
2022/08/14 10:55:13;;;;;;;3.50;2.33;;;34.80;48.50;;;;;;5077300;28;20043;-75
2022/08/14 10:57:51;;;;;;;3.83;2.58;;;35.40;47.50;;;;;;5094721;28;20408;-75
2022/08/14 11:00:25;;;;;;;5.60;3.30;;;36.20;46.20;;;;;;5095620;28;20020;-76
2022/08/14 11:03:06;;;;;;;4.25;3.17;;;36.80;45.00;;;;;;5094212;28;20027;-81
2022/08/14 11:05:47;;;;;;;4.07;2.40;;;37.50;44.10;;;;;;5094476;28;20047;-80
2022/08/14 11:08:14;;;;;;;4.38;2.88;;;38.00;43.20;;;;;;5094230;28;20093;-80
2022/08/14 11:10:47;;;;;;;4.05;2.75;;;38.60;42.60;;;;;;5094258;28;20016;-81
2022/08/14 11:13:26;;;;;;;6.15;3.15;;;39.10;41.40;;;;;;5094032;28;20027;-81
2022/08/14 11:15:54;;;;;;;3.85;3.45;;;39.60;40.70;;;;;;5093676;28;20453;-82
2022/08/14 11:18:21;;;;;;;3.13;2.83;;;40.10;40.60;;;;;;5095174;28;20403;-82
2022/08/14 11:20:55;;;;;;;4.20;2.42;;;40.60;40.10;;;;;;5095027;28;20088;-82
2022/08/14 11:23:27;;;;;;;3.35;2.40;;;40.90;39.20;;;;;;5093726;28;20031;-81
2022/08/14 11:25:55;;;;;;;3.97;1.83;;;40.90;38.70;;;;;;5095068;28;20528;-82
2022/08/14 11:28:24;;;;;;;2.90;2.30;;;40.80;38.30;;;;;;5093691;28;20016;-81
2022/08/14 11:30:50;;;;;;;3.22;2.40;;;40.70;37.80;;;;;;5093608;28;20031;-82
2022/08/14 11:33:23;;;;;;;2.50;2.13;;;40.60;37.50;;;;;;5093821;28;20028;-81
2022/08/14 11:35:49;;;;;;;6.57;2.25;;;40.50;37.30;;;;;;5094770;28;20028;-82
2022/08/14 11:38:16;;;;;;;4.85;2.17;;;40.40;37.40;;;;;;5094646;28;20221;-81
2022/08/14 11:40:42;;;;;;;3.30;2.38;;;40.30;37.20;;;;;;5093285;28;20058;-81
2022/08/14 11:43:08;;;;;;;4.80;2.50;;;40.10;37.00;;;;;;5093516;28;20029;-81
2022/08/14 11:45:39;;;;;;;3.92;2.42;;;40.10;36.90;;;;;;5073581;28;20025;-81
2022/08/14 11:48:18;;;;;;;5.10;2.45;;;40.00;36.80;;;;;;5093730;28;20062;-79
2022/08/14 11:50:45;;;;;;;5.35;2.40;;;40.00;36.80;;;;;;5093608;28;20028;-81
2022/08/14 11:53:29;;;;;;;3.00;2.38;;;40.00;36.80;;;;;;5093010;28;20056;-83
2022/08/14 11:56:03;;;;;;;7.78;2.75;;;39.90;36.70;;;;;;5094083;28;20040;-83
2022/08/14 11:58:34;;;;;;;3.83;2.38;;;39.90;36.80;;;;;;5094372;28;20093;-82
2022/08/14 12:01:05;;;;;;;2.70;2.15;;;40.00;36.80;;;;;;5092965;28;20020;-82
2022/08/14 12:03:44;;;;;;;3.08;2.30;;;40.00;36.70;;;;;;5094181;28;20024;-82
2022/08/14 12:06:18;;;;;;;3.42;2.08;;;40.00;36.30;;;;;;5093279;28;20027;-82
2022/08/14 12:08:52;;;;;;;3.40;2.42;;;40.10;36.30;;;;;;5092903;28;20372;-82
2022/08/14 12:11:18;;;;;;;4.28;2.45;;;40.10;36.20;;;;;;5092809;28;20026;-81
2022/08/14 12:13:44;;;;;;;3.53;2.53;;;40.20;36.70;;;;;;5076206;28;20116;-78
2022/08/14 12:16:15;;;;;;;3.42;2.45;;;40.40;36.10;;;;;;5059298;28;20110;-77
2022/08/14 12:18:43;;;;;;;5.45;2.25;;;40.40;36.10;;;;;;5093935;28;20077;-78
2022/08/14 12:21:24;;;;;;;3.17;2.10;;;40.40;36.10;;;;;;5092950;28;20069;-78
2022/08/14 12:24:25;;;;;;;2.50;2.30;;;40.60;36.20;;;;;;5094130;28;20020;-77
2022/08/14 12:26:55;;;;;;;3.50;2.33;;;40.70;36.00;;;;;;5075535;28;20035;-78
2022/08/14 12:29:21;;;;;;;2.75;2.05;;;40.80;36.00;;;;;;5092613;28;20022;-77
2022/08/14 12:31:58;;;;;;;2.95;2.17;;;40.80;35.90;;;;;;5093937;28;20407;-78
2022/08/14 12:34:30;;;;;;;3.38;2.40;;;40.90;35.80;;;;;;5092319;28;20093;-77
2022/08/14 12:37:07;;;;;;;3.72;2.30;;;41.10;35.60;;;;;;5094173;28;20020;-77
2022/08/14 12:39:34;;;;;;;3.08;2.20;;;41.20;35.20;;;;;;5062449;28;20033;-78
2022/08/14 12:42:05;;;;;;;4.43;2.30;;;41.30;35.30;;;;;;5092711;28;20016;-77
2022/08/14 12:44:43;;;;;;;3.22;2.38;;;41.40;35.10;;;;;;5091925;28;20024;-77
2022/08/14 12:47:16;;;;;;;3.83;2.00;;;41.60;34.90;;;;;;5092251;28;20055;-78
2022/08/14 12:49:51;;;;;;;3.63;2.53;;;41.60;34.90;;;;;;5092016;28;20107;-77
2022/08/14 12:52:26;;;;;;;3.83;2.30;;;41.60;34.70;;;;;;5092107;28;20016;-82
2022/08/14 12:55:05;;;;;;;3.40;2.47;;;41.50;34.60;;;;;;5091731;28;20047;-83
2022/08/14 12:57:39;;;;;;;3.20;2.28;;;41.30;34.50;;;;;;5091829;28;20031;-82
2022/08/14 13:00:16;;;;;;;5.38;2.42;;;41.40;34.60;;;;;;5093252;28;20103;-82
2022/08/14 13:02:43;;;;;;;4.07;2.72;;;41.50;34.50;;;;;;5091975;28;20063;-83
2022/08/14 13:05:11;;;;;;;2.63;2.20;;;41.70;34.60;;;;;;5093144;28;20541;-83
2022/08/14 13:07:41;;;;;;;3.88;2.45;;;41.80;34.50;;;;;;5075182;28;20062;-83